sensor_id;sensor_type;location;lat;lon;timestamp;P1;durP1;ratioP1;P2;durP2;ratioP2
17340;SDS011;8788;49.930;8.660;2023-05-02T00:00:26;3.05;;;2.20;;
17340;SDS011;8788;49.930;8.660;2023-05-02T00:02:54;1.83;;;1.73;;
17340;SDS011;8788;49.930;8.660;2023-05-02T00:05:21;2.35;;;2.15;;
17340;SDS011;8788;49.930;8.660;2023-05-02T00:07:48;2.30;;;2.10;;
17340;SDS011;8788;49.930;8.660;2023-05-02T00:10:16;2.22;;;2.03;;
17340;SDS011;8788;49.930;8.660;2023-05-02T00:12:43;3.00;;;2.70;;
17340;SDS011;8788;49.930;8.660;2023-05-02T00:15:12;2.67;;;2.25;;
17340;SDS011;8788;49.930;8.660;2023-05-02T00:17:39;2.22;;;2.03;;
17340;SDS011;8788;49.930;8.660;2023-05-02T00:20:08;2.72;;;2.53;;
17340;SDS011;8788;49.930;8.660;2023-05-02T00:22:36;2.40;;;2.20;;
17340;SDS011;8788;49.930;8.660;2023-05-02T00:25:04;2.90;;;2.20;;
17340;SDS011;8788;49.930;8.660;2023-05-02T00:27:31;2.83;;;2.50;;
17340;SDS011;8788;49.930;8.660;2023-05-02T00:29:59;4.22;;;2.67;;
17340;SDS011;8788;49.930;8.660;2023-05-02T00:32:27;2.40;;;2.20;;
17340;SDS011;8788;49.930;8.660;2023-05-02T00:34:54;2.88;;;2.50;;
17340;SDS011;8788;49.930;8.660;2023-05-02T00:37:24;3.45;;;2.30;;
17340;SDS011;8788;49.930;8.660;2023-05-02T00:39:52;2.35;;;2.15;;
17340;SDS011;8788;49.930;8.660;2023-05-02T00:42:19;2.72;;;2.53;;
17340;SDS011;8788;49.930;8.660;2023-05-02T00:44:46;2.53;;;2.33;;
17340;SDS011;8788;49.930;8.660;2023-05-02T00:47:13;5.95;;;2.22;;
17340;SDS011;8788;49.930;8.660;2023-05-02T00:49:42;2.50;;;2.25;;
17340;SDS011;8788;49.930;8.660;2023-05-02T00:52:09;3.20;;;2.90;;
17340;SDS011;8788;49.930;8.660;2023-05-02T00:54:36;2.75;;;2.17;;
17340;SDS011;8788;49.930;8.660;2023-05-02T00:57:04;2.83;;;2.60;;
17340;SDS011;8788;49.930;8.660;2023-05-02T00:59:32;2.03;;;1.92;;
17340;SDS011;8788;49.930;8.660;2023-05-02T01:02:04;2.67;;;2.47;;
17340;SDS011;8788;49.930;8.660;2023-05-02T01:04:46;3.03;;;2.72;;
17340;SDS011;8788;49.930;8.660;2023-05-02T01:07:21;2.13;;;1.98;;
17340;SDS011;8788;49.930;8.660;2023-05-02T01:10:05;2.72;;;2.47;;
17340;SDS011;8788;49.930;8.660;2023-05-02T01:12:40;2.45;;;2.25;;
17340;SDS011;8788;49.930;8.660;2023-05-02T01:15:11;4.63;;;3.40;;
17340;SDS011;8788;49.930;8.660;2023-05-02T01:17:43;4.22;;;2.67;;
17340;SDS011;8788;49.930;8.660;2023-05-02T01:20:13;3.08;;;2.80;;
17340;SDS011;8788;49.930;8.660;2023-05-02T01:22:44;3.42;;;3.13;;
17340;SDS011;8788;49.930;8.660;2023-05-02T01:25:16;3.40;;;3.10;;
17340;SDS011;8788;49.930;8.660;2023-05-02T01:27:50;3.75;;;3.45;;
17340;SDS011;8788;49.930;8.660;2023-05-02T01:30:25;4.57;;;3.47;;
17340;SDS011;8788;49.930;8.660;2023-05-02T01:32:57;3.30;;;3.00;;
17340;SDS011;8788;49.930;8.660;2023-05-02T01:35:26;3.88;;;3.03;;
17340;SDS011;8788;49.930;8.660;2023-05-02T01:37:56;4.57;;;3.50;;
17340;SDS011;8788;49.930;8.660;2023-05-02T01:40:24;3.95;;;3.28;;
17340;SDS011;8788;49.930;8.660;2023-05-02T01:42:52;3.67;;;3.38;;
17340;SDS011;8788;49.930;8.660;2023-05-02T01:45:20;6.03;;;3.67;;
17340;SDS011;8788;49.930;8.660;2023-05-02T01:47:50;3.70;;;3.40;;
17340;SDS011;8788;49.930;8.660;2023-05-02T01:50:21;3.50;;;3.20;;
17340;SDS011;8788;49.930;8.660;2023-05-02T01:52:51;4.28;;;3.15;;
17340;SDS011;8788;49.930;8.660;2023-05-02T01:55:20;3.85;;;3.13;;
17340;SDS011;8788;49.930;8.660;2023-05-02T01:57:49;4.95;;;3.35;;
17340;SDS011;8788;49.930;8.660;2023-05-02T02:00:18;3.45;;;3.15;;
17340;SDS011;8788;49.930;8.660;2023-05-02T02:02:47;4.43;;;3.70;;
17340;SDS011;8788;49.930;8.660;2023-05-02T02:05:17;4.65;;;3.33;;
17340;SDS011;8788;49.930;8.660;2023-05-02T02:07:45;5.13;;;4.07;;
17340;SDS011;8788;49.930;8.660;2023-05-02T02:10:13;4.53;;;3.75;;
17340;SDS011;8788;49.930;8.660;2023-05-02T02:12:41;4.20;;;3.78;;
17340;SDS011;8788;49.930;8.660;2023-05-02T02:15:12;4.35;;;3.97;;
17340;SDS011;8788;49.930;8.660;2023-05-02T02:17:45;4.63;;;4.20;;
17340;SDS011;8788;49.930;8.660;2023-05-02T02:20:27;4.30;;;3.90;;
17340;SDS011;8788;49.930;8.660;2023-05-02T02:22:56;4.47;;;4.03;;
17340;SDS011;8788;49.930;8.660;2023-05-02T02:25:26;4.82;;;4.32;;
17340;SDS011;8788;49.930;8.660;2023-05-02T02:27:53;5.00;;;4.60;;
17340;SDS011;8788;49.930;8.660;2023-05-02T02:30:22;7.78;;;4.65;;
17340;SDS011;8788;49.930;8.660;2023-05-02T02:32:49;5.07;;;4.68;;
17340;SDS011;8788;49.930;8.660;2023-05-02T02:35:16;4.57;;;4.18;;
17340;SDS011;8788;49.930;8.660;2023-05-02T02:37:46;4.82;;;4.43;;
17340;SDS011;8788;49.930;8.660;2023-05-02T02:40:19;5.28;;;4.78;;
17340;SDS011;8788;49.930;8.660;2023-05-02T02:42:51;5.32;;;4.82;;
17340;SDS011;8788;49.930;8.660;2023-05-02T02:45:26;6.05;;;4.85;;
17340;SDS011;8788;49.930;8.660;2023-05-02T02:48:01;5.28;;;4.47;;
17340;SDS011;8788;49.930;8.660;2023-05-02T02:50:37;5.13;;;4.07;;
17340;SDS011;8788;49.930;8.660;2023-05-02T02:53:14;5.38;;;4.38;;
17340;SDS011;8788;49.930;8.660;2023-05-02T02:55:45;5.03;;;4.47;;
17340;SDS011;8788;49.930;8.660;2023-05-02T02:58:20;4.90;;;4.50;;
17340;SDS011;8788;49.930;8.660;2023-05-02T03:00:57;5.13;;;4.45;;
17340;SDS011;8788;49.930;8.660;2023-05-02T03:03:28;5.00;;;4.50;;
17340;SDS011;8788;49.930;8.660;2023-05-02T03:05:58;4.97;;;4.10;;
17340;SDS011;8788;49.930;8.660;2023-05-02T03:08:27;5.82;;;3.80;;
17340;SDS011;8788;49.930;8.660;2023-05-02T03:11:04;5.63;;;3.67;;
17340;SDS011;8788;49.930;8.660;2023-05-02T03:13:32;4.18;;;3.83;;
17340;SDS011;8788;49.930;8.660;2023-05-02T03:18:59;5.45;;;4.95;;
17340;SDS011;8788;49.930;8.660;2023-05-02T03:21:27;6.63;;;4.32;;
17340;SDS011;8788;49.930;8.660;2023-05-02T03:23:59;5.78;;;4.70;;
17340;SDS011;8788;49.930;8.660;2023-05-02T03:26:28;6.28;;;5.70;;
17340;SDS011;8788;49.930;8.660;2023-05-02T03:28:55;6.32;;;4.45;;
17340;SDS011;8788;49.930;8.660;2023-05-02T03:31:29;7.20;;;5.53;;
17340;SDS011;8788;49.930;8.660;2023-05-02T03:33:56;6.20;;;5.63;;
17340;SDS011;8788;49.930;8.660;2023-05-02T03:36:23;7.50;;;5.80;;
17340;SDS011;8788;49.930;8.660;2023-05-02T03:38:52;6.47;;;5.88;;
17340;SDS011;8788;49.930;8.660;2023-05-02T03:41:21;6.75;;;6.13;;
17340;SDS011;8788;49.930;8.660;2023-05-02T03:43:55;7.13;;;5.35;;
17340;SDS011;8788;49.930;8.660;2023-05-02T03:46:24;6.03;;;5.38;;
17340;SDS011;8788;49.930;8.660;2023-05-02T03:48:52;7.85;;;5.53;;
17340;SDS011;8788;49.930;8.660;2023-05-02T03:51:19;6.60;;;5.90;;
17340;SDS011;8788;49.930;8.660;2023-05-02T03:53:50;6.28;;;5.68;;
17340;SDS011;8788;49.930;8.660;2023-05-02T03:56:17;7.28;;;6.57;;
17340;SDS011;8788;49.930;8.660;2023-05-02T03:58:53;7.65;;;6.88;;
17340;SDS011;8788;49.930;8.660;2023-05-02T04:01:23;10.35;;;8.52;;
17340;SDS011;8788;49.930;8.660;2023-05-02T04:03:52;10.50;;;8.10;;
17340;SDS011;8788;49.930;8.660;2023-05-02T04:06:22;11.27;;;8.82;;
17340;SDS011;8788;49.930;8.660;2023-05-02T04:08:55;9.55;;;8.52;;
17340;SDS011;8788;49.930;8.660;2023-05-02T04:11:26;9.40;;;8.48;;
17340;SDS011;8788;49.930;8.660;2023-05-02T04:13:55;10.40;;;8.65;;
17340;SDS011;8788;49.930;8.660;2023-05-02T04:16:22;9.75;;;8.75;;
17340;SDS011;8788;49.930;8.660;2023-05-02T04:18:49;9.82;;;8.93;;
17340;SDS011;8788;49.930;8.660;2023-05-02T04:21:17;9.55;;;8.65;;
17340;SDS011;8788;49.930;8.660;2023-05-02T04:23:45;10.40;;;9.05;;
17340;SDS011;8788;49.930;8.660;2023-05-02T04:26:12;9.95;;;8.95;;
17340;SDS011;8788;49.930;8.660;2023-05-02T04:28:51;11.18;;;8.60;;
17340;SDS011;8788;49.930;8.660;2023-05-02T04:31:22;9.63;;;8.55;;
17340;SDS011;8788;49.930;8.660;2023-05-02T04:33:50;15.38;;;9.93;;
17340;SDS011;8788;49.930;8.660;2023-05-02T04:36:21;10.77;;;9.02;;
17340;SDS011;8788;49.930;8.660;2023-05-02T04:38:49;10.30;;;9.25;;
17340;SDS011;8788;49.930;8.660;2023-05-02T04:41:17;11.07;;;9.45;;
17340;SDS011;8788;49.930;8.660;2023-05-02T04:43:51;13.52;;;10.65;;
17340;SDS011;8788;49.930;8.660;2023-05-02T04:46:18;11.40;;;9.55;;
17340;SDS011;8788;49.930;8.660;2023-05-02T04:48:46;12.05;;;10.48;;
17340;SDS011;8788;49.930;8.660;2023-05-02T04:51:14;13.63;;;10.65;;
17340;SDS011;8788;49.930;8.660;2023-05-02T04:53:41;13.52;;;11.43;;
17340;SDS011;8788;49.930;8.660;2023-05-02T04:56:08;14.80;;;12.68;;
17340;SDS011;8788;49.930;8.660;2023-05-02T04:58:36;19.38;;;14.23;;
17340;SDS011;8788;49.930;8.660;2023-05-02T05:01:06;15.68;;;13.98;;
17340;SDS011;8788;49.930;8.660;2023-05-02T05:03:34;22.40;;;14.18;;
17340;SDS011;8788;49.930;8.660;2023-05-02T05:06:03;17.77;;;14.65;;
17340;SDS011;8788;49.930;8.660;2023-05-02T05:08:31;17.35;;;13.82;;
17340;SDS011;8788;49.930;8.660;2023-05-02T05:10:58;15.25;;;13.05;;
17340;SDS011;8788;49.930;8.660;2023-05-02T05:13:26;16.45;;;13.23;;
17340;SDS011;8788;49.930;8.660;2023-05-02T05:15:53;16.05;;;12.77;;
17340;SDS011;8788;49.930;8.660;2023-05-02T05:18:24;18.25;;;13.38;;
17340;SDS011;8788;49.930;8.660;2023-05-02T05:20:51;17.77;;;14.98;;
17340;SDS011;8788;49.930;8.660;2023-05-02T05:23:20;16.98;;;13.60;;
17340;SDS011;8788;49.930;8.660;2023-05-02T05:25:47;17.15;;;14.05;;
17340;SDS011;8788;49.930;8.660;2023-05-02T05:28:16;22.75;;;15.15;;
17340;SDS011;8788;49.930;8.660;2023-05-02T05:30:44;24.50;;;18.45;;
17340;SDS011;8788;49.930;8.660;2023-05-02T05:33:14;26.15;;;19.70;;
17340;SDS011;8788;49.930;8.660;2023-05-02T05:35:42;28.33;;;21.00;;
17340;SDS011;8788;49.930;8.660;2023-05-02T05:38:09;31.35;;;22.48;;
17340;SDS011;8788;49.930;8.660;2023-05-02T05:40:40;29.15;;;21.95;;
17340;SDS011;8788;49.930;8.660;2023-05-02T05:43:08;25.92;;;21.60;;
17340;SDS011;8788;49.930;8.660;2023-05-02T05:45:37;31.65;;;23.08;;
17340;SDS011;8788;49.930;8.660;2023-05-02T05:48:05;29.98;;;22.75;;
17340;SDS011;8788;49.930;8.660;2023-05-02T05:50:37;28.08;;;23.15;;
17340;SDS011;8788;49.930;8.660;2023-05-02T05:53:04;30.90;;;23.77;;
17340;SDS011;8788;49.930;8.660;2023-05-02T05:55:32;29.10;;;24.17;;
17340;SDS011;8788;49.930;8.660;2023-05-02T05:58:02;33.17;;;24.42;;
17340;SDS011;8788;49.930;8.660;2023-05-02T06:00:30;34.85;;;23.55;;
17340;SDS011;8788;49.930;8.660;2023-05-02T06:03:00;34.13;;;24.67;;
17340;SDS011;8788;49.930;8.660;2023-05-02T06:05:30;32.30;;;25.05;;
17340;SDS011;8788;49.930;8.660;2023-05-02T06:07:57;34.40;;;23.02;;
17340;SDS011;8788;49.930;8.660;2023-05-02T06:10:25;28.70;;;21.98;;
17340;SDS011;8788;49.930;8.660;2023-05-02T06:12:53;38.90;;;24.50;;
17340;SDS011;8788;49.930;8.660;2023-05-02T06:15:26;31.80;;;22.92;;
17340;SDS011;8788;49.930;8.660;2023-05-02T06:17:53;30.23;;;23.73;;
17340;SDS011;8788;49.930;8.660;2023-05-02T06:20:20;29.10;;;23.10;;
17340;SDS011;8788;49.930;8.660;2023-05-02T06:22:47;31.58;;;23.90;;
17340;SDS011;8788;49.930;8.660;2023-05-02T06:25:14;35.10;;;22.80;;
17340;SDS011;8788;49.930;8.660;2023-05-02T06:27:41;30.70;;;23.98;;
17340;SDS011;8788;49.930;8.660;2023-05-02T06:30:08;30.20;;;22.75;;
17340;SDS011;8788;49.930;8.660;2023-05-02T06:32:37;36.90;;;24.38;;
17340;SDS011;8788;49.930;8.660;2023-05-02T06:35:06;29.98;;;22.33;;
17340;SDS011;8788;49.930;8.660;2023-05-02T06:37:34;27.60;;;21.50;;
17340;SDS011;8788;49.930;8.660;2023-05-02T06:40:01;31.77;;;23.63;;
17340;SDS011;8788;49.930;8.660;2023-05-02T06:42:29;30.20;;;22.80;;
17340;SDS011;8788;49.930;8.660;2023-05-02T06:44:56;29.13;;;23.13;;
17340;SDS011;8788;49.930;8.660;2023-05-02T06:47:23;31.15;;;23.15;;
17340;SDS011;8788;49.930;8.660;2023-05-02T06:49:51;29.08;;;22.63;;
17340;SDS011;8788;49.930;8.660;2023-05-02T06:52:18;30.95;;;23.10;;
17340;SDS011;8788;49.930;8.660;2023-05-02T06:54:46;30.52;;;21.88;;
17340;SDS011;8788;49.930;8.660;2023-05-02T06:57:13;30.17;;;22.80;;
17340;SDS011;8788;49.930;8.660;2023-05-02T06:59:40;30.63;;;22.42;;
17340;SDS011;8788;49.930;8.660;2023-05-02T07:02:07;31.45;;;23.02;;
17340;SDS011;8788;49.930;8.660;2023-05-02T07:04:34;32.50;;;23.38;;
17340;SDS011;8788;49.930;8.660;2023-05-02T07:07:02;30.70;;;22.67;;
17340;SDS011;8788;49.930;8.660;2023-05-02T07:09:30;31.33;;;22.92;;
17340;SDS011;8788;49.930;8.660;2023-05-02T07:11:57;32.17;;;21.98;;
17340;SDS011;8788;49.930;8.660;2023-05-02T07:14:25;30.15;;;21.50;;
17340;SDS011;8788;49.930;8.660;2023-05-02T07:16:52;30.52;;;21.58;;
17340;SDS011;8788;49.930;8.660;2023-05-02T07:19:19;26.75;;;20.63;;
17340;SDS011;8788;49.930;8.660;2023-05-02T07:21:46;30.40;;;20.42;;
17340;SDS011;8788;49.930;8.660;2023-05-02T07:24:15;25.95;;;20.55;;
17340;SDS011;8788;49.930;8.660;2023-05-02T07:26:42;26.85;;;19.52;;
17340;SDS011;8788;49.930;8.660;2023-05-02T07:29:09;28.65;;;21.30;;
17340;SDS011;8788;49.930;8.660;2023-05-02T07:31:36;26.05;;;19.98;;
17340;SDS011;8788;49.930;8.660;2023-05-02T07:34:03;28.75;;;20.67;;
17340;SDS011;8788;49.930;8.660;2023-05-02T07:36:31;25.08;;;19.80;;
17340;SDS011;8788;49.930;8.660;2023-05-02T07:38:58;25.70;;;18.95;;
17340;SDS011;8788;49.930;8.660;2023-05-02T07:41:26;25.50;;;18.02;;
17340;SDS011;8788;49.930;8.660;2023-05-02T07:43:53;26.08;;;18.23;;
17340;SDS011;8788;49.930;8.660;2023-05-02T07:46:21;27.23;;;17.75;;
17340;SDS011;8788;49.930;8.660;2023-05-02T07:48:49;22.27;;;17.45;;
17340;SDS011;8788;49.930;8.660;2023-05-02T07:51:18;23.35;;;17.73;;
17340;SDS011;8788;49.930;8.660;2023-05-02T07:53:45;21.35;;;16.48;;
17340;SDS011;8788;49.930;8.660;2023-05-02T07:56:12;22.10;;;16.35;;
17340;SDS011;8788;49.930;8.660;2023-05-02T07:58:41;21.83;;;16.70;;
17340;SDS011;8788;49.930;8.660;2023-05-02T08:01:08;28.83;;;15.43;;
17340;SDS011;8788;49.930;8.660;2023-05-02T08:03:36;19.17;;;15.43;;
17340;SDS011;8788;49.930;8.660;2023-05-02T08:06:03;22.35;;;16.20;;
17340;SDS011;8788;49.930;8.660;2023-05-02T08:08:30;22.13;;;16.08;;
17340;SDS011;8788;49.930;8.660;2023-05-02T08:10:57;24.77;;;17.15;;
17340;SDS011;8788;49.930;8.660;2023-05-02T08:13:24;19.95;;;14.95;;
17340;SDS011;8788;49.930;8.660;2023-05-02T08:15:52;21.65;;;15.85;;
17340;SDS011;8788;49.930;8.660;2023-05-02T08:18:22;22.80;;;15.90;;
17340;SDS011;8788;49.930;8.660;2023-05-02T08:20:49;22.50;;;16.17;;
17340;SDS011;8788;49.930;8.660;2023-05-02T08:23:17;13.63;;;11.27;;
17340;SDS011;8788;49.930;8.660;2023-05-02T08:25:44;15.52;;;11.27;;
17340;SDS011;8788;49.930;8.660;2023-05-02T08:28:11;15.27;;;11.68;;
17340;SDS011;8788;49.930;8.660;2023-05-02T08:30:38;16.98;;;11.93;;
17340;SDS011;8788;49.930;8.660;2023-05-02T08:33:07;16.40;;;10.80;;
17340;SDS011;8788;49.930;8.660;2023-05-02T08:35:34;18.77;;;12.43;;
17340;SDS011;8788;49.930;8.660;2023-05-02T08:38:01;14.65;;;10.77;;
17340;SDS011;8788;49.930;8.660;2023-05-02T08:40:28;15.63;;;11.23;;
17340;SDS011;8788;49.930;8.660;2023-05-02T08:43:00;15.70;;;12.02;;
17340;SDS011;8788;49.930;8.660;2023-05-02T08:45:29;17.77;;;12.02;;
17340;SDS011;8788;49.930;8.660;2023-05-02T08:48:03;17.90;;;12.20;;
17340;SDS011;8788;49.930;8.660;2023-05-02T08:50:35;15.07;;;11.23;;
17340;SDS011;8788;49.930;8.660;2023-05-02T08:53:03;16.25;;;11.35;;
17340;SDS011;8788;49.930;8.660;2023-05-02T08:55:32;18.15;;;12.18;;
17340;SDS011;8788;49.930;8.660;2023-05-02T08:58:00;17.65;;;11.60;;
17340;SDS011;8788;49.930;8.660;2023-05-02T09:00:28;20.15;;;12.77;;
17340;SDS011;8788;49.930;8.660;2023-05-02T09:03:00;17.48;;;12.48;;
17340;SDS011;8788;49.930;8.660;2023-05-02T09:05:35;15.93;;;11.68;;
17340;SDS011;8788;49.930;8.660;2023-05-02T09:08:06;18.63;;;13.10;;
17340;SDS011;8788;49.930;8.660;2023-05-02T09:10:33;20.63;;;12.93;;
17340;SDS011;8788;49.930;8.660;2023-05-02T09:15:55;15.45;;;11.20;;
17340;SDS011;8788;49.930;8.660;2023-05-02T09:18:24;18.95;;;11.00;;
17340;SDS011;8788;49.930;8.660;2023-05-02T09:21:03;16.83;;;11.50;;
17340;SDS011;8788;49.930;8.660;2023-05-02T09:23:33;16.83;;;11.23;;
17340;SDS011;8788;49.930;8.660;2023-05-02T09:26:08;15.93;;;10.82;;
17340;SDS011;8788;49.930;8.660;2023-05-02T09:28:38;17.10;;;10.38;;
17340;SDS011;8788;49.930;8.660;2023-05-02T09:31:08;13.98;;;10.65;;
17340;SDS011;8788;49.930;8.660;2023-05-02T09:33:36;16.45;;;9.98;;
17340;SDS011;8788;49.930;8.660;2023-05-02T09:36:05;14.73;;;10.40;;
17340;SDS011;8788;49.930;8.660;2023-05-02T09:38:34;14.82;;;10.80;;
17340;SDS011;8788;49.930;8.660;2023-05-02T09:41:01;16.52;;;10.73;;
17340;SDS011;8788;49.930;8.660;2023-05-02T09:43:29;16.10;;;11.05;;
17340;SDS011;8788;49.930;8.660;2023-05-02T09:45:57;14.13;;;9.93;;
17340;SDS011;8788;49.930;8.660;2023-05-02T09:48:26;14.40;;;10.02;;
17340;SDS011;8788;49.930;8.660;2023-05-02T09:50:54;15.23;;;11.23;;
17340;SDS011;8788;49.930;8.660;2023-05-02T09:53:25;13.95;;;10.38;;
17340;SDS011;8788;49.930;8.660;2023-05-02T09:55:59;15.43;;;11.55;;
17340;SDS011;8788;49.930;8.660;2023-05-02T09:58:27;16.45;;;10.98;;
17340;SDS011;8788;49.930;8.660;2023-05-02T10:00:56;16.15;;;10.85;;
17340;SDS011;8788;49.930;8.660;2023-05-02T10:03:24;18.00;;;11.25;;
17340;SDS011;8788;49.930;8.660;2023-05-02T10:05:52;16.63;;;11.05;;
17340;SDS011;8788;49.930;8.660;2023-05-02T10:08:21;15.30;;;10.85;;
17340;SDS011;8788;49.930;8.660;2023-05-02T10:10:51;16.33;;;11.30;;
17340;SDS011;8788;49.930;8.660;2023-05-02T10:13:20;16.40;;;11.68;;
17340;SDS011;8788;49.930;8.660;2023-05-02T10:15:53;13.55;;;10.00;;
17340;SDS011;8788;49.930;8.660;2023-05-02T10:18:28;14.50;;;10.18;;
17340;SDS011;8788;49.930;8.660;2023-05-02T10:21:04;13.90;;;10.38;;
17340;SDS011;8788;49.930;8.660;2023-05-02T10:23:37;15.10;;;10.18;;
17340;SDS011;8788;49.930;8.660;2023-05-02T10:26:06;19.30;;;10.23;;
17340;SDS011;8788;49.930;8.660;2023-05-02T10:28:34;16.00;;;10.40;;
17340;SDS011;8788;49.930;8.660;2023-05-02T10:31:03;12.15;;;9.10;;
17340;SDS011;8788;49.930;8.660;2023-05-02T10:33:31;13.82;;;9.45;;
17340;SDS011;8788;49.930;8.660;2023-05-02T10:36:00;12.98;;;8.85;;
17340;SDS011;8788;49.930;8.660;2023-05-02T10:38:27;14.48;;;9.63;;
17340;SDS011;8788;49.930;8.660;2023-05-02T10:40:57;13.48;;;9.00;;
17340;SDS011;8788;49.930;8.660;2023-05-02T10:43:29;9.85;;;7.47;;
17340;SDS011;8788;49.930;8.660;2023-05-02T10:45:59;10.93;;;7.55;;
17340;SDS011;8788;49.930;8.660;2023-05-02T10:48:27;11.00;;;7.85;;
17340;SDS011;8788;49.930;8.660;2023-05-02T10:50:56;10.82;;;7.60;;
17340;SDS011;8788;49.930;8.660;2023-05-02T10:53:26;12.02;;;8.43;;
17340;SDS011;8788;49.930;8.660;2023-05-02T10:58:46;11.40;;;7.82;;
17340;SDS011;8788;49.930;8.660;2023-05-02T11:01:30;12.50;;;8.45;;
17340;SDS011;8788;49.930;8.660;2023-05-02T11:04:02;11.77;;;7.45;;
17340;SDS011;8788;49.930;8.660;2023-05-02T11:06:31;10.55;;;7.05;;
17340;SDS011;8788;49.930;8.660;2023-05-02T11:12:02;9.88;;;6.82;;
17340;SDS011;8788;49.930;8.660;2023-05-02T11:17:15;10.98;;;7.10;;
17340;SDS011;8788;49.930;8.660;2023-05-02T11:22:51;9.52;;;6.93;;
17340;SDS011;8788;49.930;8.660;2023-05-02T11:25:32;9.07;;;6.78;;
17340;SDS011;8788;49.930;8.660;2023-05-02T11:28:06;9.52;;;6.40;;
17340;SDS011;8788;49.930;8.660;2023-05-02T11:30:53;7.57;;;5.60;;
17340;SDS011;8788;49.930;8.660;2023-05-02T11:33:20;9.07;;;6.22;;
17340;SDS011;8788;49.930;8.660;2023-05-02T11:35:47;10.15;;;6.20;;
17340;SDS011;8788;49.930;8.660;2023-05-02T11:38:16;7.97;;;6.30;;
17340;SDS011;8788;49.930;8.660;2023-05-02T11:40:51;6.72;;;5.20;;
17340;SDS011;8788;49.930;8.660;2023-05-02T11:43:24;5.50;;;4.65;;
17340;SDS011;8788;49.930;8.660;2023-05-02T11:45:52;6.93;;;4.50;;
17340;SDS011;8788;49.930;8.660;2023-05-02T11:48:21;5.97;;;4.22;;
17340;SDS011;8788;49.930;8.660;2023-05-02T11:50:52;6.70;;;4.85;;
17340;SDS011;8788;49.930;8.660;2023-05-02T11:53:22;6.53;;;4.50;;
17340;SDS011;8788;49.930;8.660;2023-05-02T11:55:50;5.75;;;4.15;;
17340;SDS011;8788;49.930;8.660;2023-05-02T11:58:20;3.65;;;3.20;;
17340;SDS011;8788;49.930;8.660;2023-05-02T12:00:50;3.45;;;2.95;;
17340;SDS011;8788;49.930;8.660;2023-05-02T12:03:28;4.57;;;3.03;;
17340;SDS011;8788;49.930;8.660;2023-05-02T12:05:56;3.80;;;3.05;;
17340;SDS011;8788;49.930;8.660;2023-05-02T12:08:33;4.28;;;2.97;;
17340;SDS011;8788;49.930;8.660;2023-05-02T12:11:00;4.03;;;3.13;;
17340;SDS011;8788;49.930;8.660;2023-05-02T12:13:28;3.38;;;3.08;;
17340;SDS011;8788;49.930;8.660;2023-05-02T12:15:56;3.92;;;2.78;;
17340;SDS011;8788;49.930;8.660;2023-05-02T12:18:24;4.65;;;2.92;;
17340;SDS011;8788;49.930;8.660;2023-05-02T12:20:52;3.95;;;2.75;;
17340;SDS011;8788;49.930;8.660;2023-05-02T12:23:21;4.32;;;3.20;;
17340;SDS011;8788;49.930;8.660;2023-05-02T12:25:51;3.83;;;3.38;;
17340;SDS011;8788;49.930;8.660;2023-05-02T12:28:18;3.13;;;2.83;;
17340;SDS011;8788;49.930;8.660;2023-05-02T12:30:48;4.05;;;2.88;;
17340;SDS011;8788;49.930;8.660;2023-05-02T12:33:17;3.05;;;2.67;;
17340;SDS011;8788;49.930;8.660;2023-05-02T12:35:44;3.22;;;2.17;;
17340;SDS011;8788;49.930;8.660;2023-05-02T12:38:13;2.47;;;2.28;;
17340;SDS011;8788;49.930;8.660;2023-05-02T12:40:47;3.60;;;2.65;;
17340;SDS011;8788;49.930;8.660;2023-05-02T12:43:16;3.47;;;2.22;;
17340;SDS011;8788;49.930;8.660;2023-05-02T12:45:44;2.85;;;2.30;;
17340;SDS011;8788;49.930;8.660;2023-05-02T12:48:21;3.55;;;2.22;;
17340;SDS011;8788;49.930;8.660;2023-05-02T12:50:49;4.20;;;2.70;;
17340;SDS011;8788;49.930;8.660;2023-05-02T12:53:16;3.63;;;2.47;;
17340;SDS011;8788;49.930;8.660;2023-05-02T12:56:02;3.33;;;2.72;;
17340;SDS011;8788;49.930;8.660;2023-05-02T12:58:30;2.88;;;2.58;;
17340;SDS011;8788;49.930;8.660;2023-05-02T13:01:06;3.53;;;2.70;;
17340;SDS011;8788;49.930;8.660;2023-05-02T13:03:35;3.20;;;2.70;;
17340;SDS011;8788;49.930;8.660;2023-05-02T13:06:03;5.47;;;3.38;;
17340;SDS011;8788;49.930;8.660;2023-05-02T13:08:30;6.13;;;4.68;;
17340;SDS011;8788;49.930;8.660;2023-05-02T13:10:58;5.93;;;3.90;;
17340;SDS011;8788;49.930;8.660;2023-05-02T13:13:25;4.88;;;3.78;;
17340;SDS011;8788;49.930;8.660;2023-05-02T13:15:53;5.32;;;4.55;;
17340;SDS011;8788;49.930;8.660;2023-05-02T13:18:20;6.40;;;4.55;;
17340;SDS011;8788;49.930;8.660;2023-05-02T13:20:48;5.57;;;4.05;;
17340;SDS011;8788;49.930;8.660;2023-05-02T13:23:15;5.25;;;4.28;;
17340;SDS011;8788;49.930;8.660;2023-05-02T13:25:42;7.57;;;4.35;;
17340;SDS011;8788;49.930;8.660;2023-05-02T13:28:09;8.60;;;3.78;;
17340;SDS011;8788;49.930;8.660;2023-05-02T13:30:37;7.32;;;4.22;;
17340;SDS011;8788;49.930;8.660;2023-05-02T13:33:04;5.88;;;3.90;;
17340;SDS011;8788;49.930;8.660;2023-05-02T13:35:31;4.20;;;3.80;;
17340;SDS011;8788;49.930;8.660;2023-05-02T13:37:59;4.78;;;3.28;;
17340;SDS011;8788;49.930;8.660;2023-05-02T13:40:26;3.72;;;2.88;;
17340;SDS011;8788;49.930;8.660;2023-05-02T13:42:53;4.45;;;3.53;;
17340;SDS011;8788;49.930;8.660;2023-05-02T13:45:20;5.40;;;3.97;;
17340;SDS011;8788;49.930;8.660;2023-05-02T13:47:47;3.78;;;2.92;;
17340;SDS011;8788;49.930;8.660;2023-05-02T13:50:14;2.63;;;2.42;;
17340;SDS011;8788;49.930;8.660;2023-05-02T13:52:41;3.72;;;2.75;;
17340;SDS011;8788;49.930;8.660;2023-05-02T13:55:10;2.90;;;2.50;;
17340;SDS011;8788;49.930;8.660;2023-05-02T13:57:37;5.63;;;2.85;;
17340;SDS011;8788;49.930;8.660;2023-05-02T14:00:04;2.85;;;2.60;;
17340;SDS011;8788;49.930;8.660;2023-05-02T14:02:33;3.13;;;2.10;;
17340;SDS011;8788;49.930;8.660;2023-05-02T14:05:01;3.63;;;2.42;;
17340;SDS011;8788;49.930;8.660;2023-05-02T14:07:28;3.10;;;2.80;;
17340;SDS011;8788;49.930;8.660;2023-05-02T14:09:55;3.95;;;3.53;;
17340;SDS011;8788;49.930;8.660;2023-05-02T14:12:23;3.88;;;3.22;;
17340;SDS011;8788;49.930;8.660;2023-05-02T14:14:51;3.55;;;3.25;;
17340;SDS011;8788;49.930;8.660;2023-05-02T14:17:18;3.65;;;3.33;;
17340;SDS011;8788;49.930;8.660;2023-05-02T14:19:45;3.13;;;2.75;;
17340;SDS011;8788;49.930;8.660;2023-05-02T14:22:13;3.22;;;2.92;;
17340;SDS011;8788;49.930;8.660;2023-05-02T14:24:40;3.25;;;2.95;;
17340;SDS011;8788;49.930;8.660;2023-05-02T14:27:07;3.28;;;2.88;;
17340;SDS011;8788;49.930;8.660;2023-05-02T14:29:47;3.88;;;3.53;;
17340;SDS011;8788;49.930;8.660;2023-05-02T14:32:15;5.30;;;3.55;;
17340;SDS011;8788;49.930;8.660;2023-05-02T14:34:42;4.40;;;3.92;;
17340;SDS011;8788;49.930;8.660;2023-05-02T14:37:09;3.95;;;3.28;;
17340;SDS011;8788;49.930;8.660;2023-05-02T14:39:36;5.88;;;3.38;;
17340;SDS011;8788;49.930;8.660;2023-05-02T14:42:04;5.35;;;3.88;;
17340;SDS011;8788;49.930;8.660;2023-05-02T14:44:31;5.13;;;3.60;;
17340;SDS011;8788;49.930;8.660;2023-05-02T14:46:59;6.10;;;3.60;;
17340;SDS011;8788;49.930;8.660;2023-05-02T14:49:27;4.30;;;3.47;;
17340;SDS011;8788;49.930;8.660;2023-05-02T14:51:54;4.95;;;3.55;;
17340;SDS011;8788;49.930;8.660;2023-05-02T14:54:24;4.50;;;3.83;;
17340;SDS011;8788;49.930;8.660;2023-05-02T14:56:52;3.55;;;3.13;;
17340;SDS011;8788;49.930;8.660;2023-05-02T14:59:19;4.20;;;3.08;;
17340;SDS011;8788;49.930;8.660;2023-05-02T15:01:46;5.93;;;3.45;;
17340;SDS011;8788;49.930;8.660;2023-05-02T15:04:15;6.93;;;3.33;;
17340;SDS011;8788;49.930;8.660;2023-05-02T15:06:43;4.78;;;3.53;;
17340;SDS011;8788;49.930;8.660;2023-05-02T15:09:12;6.13;;;3.72;;
17340;SDS011;8788;49.930;8.660;2023-05-02T15:11:40;4.95;;;3.60;;
17340;SDS011;8788;49.930;8.660;2023-05-02T15:14:07;5.20;;;3.53;;
17340;SDS011;8788;49.930;8.660;2023-05-02T15:16:34;4.07;;;3.70;;
17340;SDS011;8788;49.930;8.660;2023-05-02T15:19:03;4.65;;;3.42;;